sensor_id;sensor_type;location;lat;lon;timestamp;temperature;humidity
38183;DHT22;23991;52.430;10.586;2022-10-16T00:01:14;16.40;69.90
38183;DHT22;23991;52.430;10.586;2022-10-16T00:03:42;16.30;69.80
38183;DHT22;23991;52.430;10.586;2022-10-16T00:06:09;16.30;70.10
38183;DHT22;23991;52.430;10.586;2022-10-16T00:08:35;16.30;70.50
38183;DHT22;23991;52.430;10.586;2022-10-16T00:11:16;16.30;70.70
38183;DHT22;23991;52.430;10.586;2022-10-16T00:13:43;16.30;70.90
38183;DHT22;23991;52.430;10.586;2022-10-16T00:16:09;16.30;71.00
38183;DHT22;23991;52.430;10.586;2022-10-16T00:18:35;16.20;71.30
38183;DHT22;23991;52.430;10.586;2022-10-16T00:21:25;16.20;71.50
38183;DHT22;23991;52.430;10.586;2022-10-16T00:23:53;16.10;71.80
38183;DHT22;23991;52.430;10.586;2022-10-16T00:26:19;16.20;71.60
38183;DHT22;23991;52.430;10.586;2022-10-16T00:28:49;16.10;71.80
38183;DHT22;23991;52.430;10.586;2022-10-16T00:31:17;16.00;72.10
38183;DHT22;23991;52.430;10.586;2022-10-16T00:33:43;16.00;72.20
38183;DHT22;23991;52.430;10.586;2022-10-16T00:36:17;16.00;72.50
38183;DHT22;23991;52.430;10.586;2022-10-16T00:38:43;16.00;72.90
38183;DHT22;23991;52.430;10.586;2022-10-16T00:41:15;16.00;73.40
38183;DHT22;23991;52.430;10.586;2022-10-16T00:43:49;15.90;73.80
38183;DHT22;23991;52.430;10.586;2022-10-16T00:46:25;15.90;74.10
38183;DHT22;23991;52.430;10.586;2022-10-16T00:49:00;15.90;74.30
38183;DHT22;23991;52.430;10.586;2022-10-16T00:51:50;15.80;74.70
38183;DHT22;23991;52.430;10.586;2022-10-16T00:54:23;15.80;75.10
38183;DHT22;23991;52.430;10.586;2022-10-16T00:56:50;15.80;75.20
38183;DHT22;23991;52.430;10.586;2022-10-16T00:59:28;15.80;75.20
38183;DHT22;23991;52.430;10.586;2022-10-16T01:01:55;15.80;75.50
38183;DHT22;23991;52.430;10.586;2022-10-16T01:04:22;15.80;75.70
38183;DHT22;23991;52.430;10.586;2022-10-16T01:15:10;15.80;76.90
38183;DHT22;23991;52.430;10.586;2022-10-16T01:17:48;15.80;77.10
38183;DHT22;23991;52.430;10.586;2022-10-16T01:20:29;15.80;77.30
38183;DHT22;23991;52.430;10.586;2022-10-16T01:28:19;15.80;77.90
38183;DHT22;23991;52.430;10.586;2022-10-16T01:30:48;15.70;78.10
38183;DHT22;23991;52.430;10.586;2022-10-16T01:33:20;15.70;78.40
38183;DHT22;23991;52.430;10.586;2022-10-16T01:35:52;15.70;78.50
38183;DHT22;23991;52.430;10.586;2022-10-16T01:38:23;15.70;78.60
38183;DHT22;23991;52.430;10.586;2022-10-16T01:40:54;15.70;78.70
38183;DHT22;23991;52.430;10.586;2022-10-16T01:43:25;15.70;78.80
38183;DHT22;23991;52.430;10.586;2022-10-16T01:45:52;15.70;78.90
38183;DHT22;23991;52.430;10.586;2022-10-16T01:48:20;15.60;79.00
38183;DHT22;23991;52.430;10.586;2022-10-16T01:50:55;15.70;79.10
38183;DHT22;23991;52.430;10.586;2022-10-16T01:53:22;15.60;79.20
38183;DHT22;23991;52.430;10.586;2022-10-16T01:55:50;15.70;79.20
38183;DHT22;23991;52.430;10.586;2022-10-16T01:58:16;15.60;79.20
38183;DHT22;23991;52.430;10.586;2022-10-16T02:00:44;15.60;79.20
38183;DHT22;23991;52.430;10.586;2022-10-16T02:03:13;15.60;79.20
38183;DHT22;23991;52.430;10.586;2022-10-16T02:08:08;15.60;79.40
38183;DHT22;23991;52.430;10.586;2022-10-16T02:10:35;15.60;79.40
38183;DHT22;23991;52.430;10.586;2022-10-16T02:13:08;15.50;79.70
38183;DHT22;23991;52.430;10.586;2022-10-16T02:15:35;15.50;79.70
38183;DHT22;23991;52.430;10.586;2022-10-16T02:18:02;15.50;79.80
38183;DHT22;23991;52.430;10.586;2022-10-16T02:20:33;15.50;79.90
38183;DHT22;23991;52.430;10.586;2022-10-16T02:23:01;15.50;79.90
38183;DHT22;23991;52.430;10.586;2022-10-16T02:25:30;15.50;79.90
38183;DHT22;23991;52.430;10.586;2022-10-16T02:28:22;15.50;80.00
38183;DHT22;23991;52.430;10.586;2022-10-16T02:30:53;15.40;80.00
38183;DHT22;23991;52.430;10.586;2022-10-16T02:33:21;15.40;80.10
38183;DHT22;23991;52.430;10.586;2022-10-16T02:35:48;15.40;80.00
38183;DHT22;23991;52.430;10.586;2022-10-16T02:38:16;15.40;79.90
38183;DHT22;23991;52.430;10.586;2022-10-16T02:40:42;15.40;79.80
38183;DHT22;23991;52.430;10.586;2022-10-16T02:43:09;15.40;79.90
38183;DHT22;23991;52.430;10.586;2022-10-16T02:45:35;15.40;79.90
38183;DHT22;23991;52.430;10.586;2022-10-16T02:48:00;15.40;80.00
38183;DHT22;23991;52.430;10.586;2022-10-16T02:50:26;15.40;80.00
38183;DHT22;23991;52.430;10.586;2022-10-16T02:52:52;15.40;79.90
38183;DHT22;23991;52.430;10.586;2022-10-16T02:55:17;15.40;80.00
38183;DHT22;23991;52.430;10.586;2022-10-16T02:57:43;15.40;79.90
38183;DHT22;23991;52.430;10.586;2022-10-16T03:00:11;15.40;79.90
38183;DHT22;23991;52.430;10.586;2022-10-16T03:02:37;15.40;79.80
38183;DHT22;23991;52.430;10.586;2022-10-16T03:05:03;15.40;79.70
38183;DHT22;23991;52.430;10.586;2022-10-16T03:07:29;15.40;79.70
38183;DHT22;23991;52.430;10.586;2022-10-16T03:09:55;15.40;79.70
38183;DHT22;23991;52.430;10.586;2022-10-16T03:12:21;15.40;79.70
38183;DHT22;23991;52.430;10.586;2022-10-16T03:14:47;15.40;79.70
38183;DHT22;23991;52.430;10.586;2022-10-16T03:17:12;15.40;79.80
38183;DHT22;23991;52.430;10.586;2022-10-16T03:19:39;15.40;79.80
38183;DHT22;23991;52.430;10.586;2022-10-16T03:22:04;15.40;79.80
38183;DHT22;23991;52.430;10.586;2022-10-16T03:24:30;15.30;79.80
38183;DHT22;23991;52.430;10.586;2022-10-16T03:26:59;15.30;79.90
38183;DHT22;23991;52.430;10.586;2022-10-16T03:29:24;15.30;79.90
38183;DHT22;23991;52.430;10.586;2022-10-16T03:31:51;15.30;80.00
38183;DHT22;23991;52.430;10.586;2022-10-16T03:34:17;15.30;80.00
38183;DHT22;23991;52.430;10.586;2022-10-16T03:36:43;15.30;79.90
38183;DHT22;23991;52.430;10.586;2022-10-16T03:39:08;15.30;79.90
38183;DHT22;23991;52.430;10.586;2022-10-16T03:41:34;15.20;80.10
38183;DHT22;23991;52.430;10.586;2022-10-16T03:43:59;15.20;80.00
38183;DHT22;23991;52.430;10.586;2022-10-16T03:46:25;15.20;80.00
38183;DHT22;23991;52.430;10.586;2022-10-16T03:48:51;15.20;80.00
38183;DHT22;23991;52.430;10.586;2022-10-16T03:51:16;15.20;79.80
38183;DHT22;23991;52.430;10.586;2022-10-16T03:53:42;15.10;79.90
38183;DHT22;23991;52.430;10.586;2022-10-16T03:56:08;15.20;80.10
38183;DHT22;23991;52.430;10.586;2022-10-16T03:58:33;15.10;80.20
38183;DHT22;23991;52.430;10.586;2022-10-16T04:00:59;15.10;80.30
38183;DHT22;23991;52.430;10.586;2022-10-16T04:03:25;15.10;80.30
38183;DHT22;23991;52.430;10.586;2022-10-16T04:05:50;15.10;80.40
38183;DHT22;23991;52.430;10.586;2022-10-16T04:08:16;15.10;80.50
38183;DHT22;23991;52.430;10.586;2022-10-16T04:10:43;15.10;80.50
38183;DHT22;23991;52.430;10.586;2022-10-16T04:13:08;15.10;80.50
38183;DHT22;23991;52.430;10.586;2022-10-16T04:15:34;15.10;80.50
38183;DHT22;23991;52.430;10.586;2022-10-16T04:18:00;15.10;80.50
38183;DHT22;23991;52.430;10.586;2022-10-16T04:20:25;15.00;80.50
38183;DHT22;23991;52.430;10.586;2022-10-16T04:22:51;15.00;80.40
38183;DHT22;23991;52.430;10.586;2022-10-16T04:25:16;15.00;80.50
38183;DHT22;23991;52.430;10.586;2022-10-16T04:27:42;15.00;80.50
38183;DHT22;23991;52.430;10.586;2022-10-16T04:30:08;15.00;80.50
38183;DHT22;23991;52.430;10.586;2022-10-16T04:32:34;15.00;80.50
38183;DHT22;23991;52.430;10.586;2022-10-16T04:34:59;15.00;80.50
38183;DHT22;23991;52.430;10.586;2022-10-16T04:37:26;15.00;80.50
38183;DHT22;23991;52.430;10.586;2022-10-16T04:39:52;14.90;80.40
38183;DHT22;23991;52.430;10.586;2022-10-16T04:42:18;14.90;80.40
38183;DHT22;23991;52.430;10.586;2022-10-16T04:44:44;14.90;80.40
38183;DHT22;23991;52.430;10.586;2022-10-16T04:47:10;14.90;80.40
38183;DHT22;23991;52.430;10.586;2022-10-16T04:49:35;14.80;80.50
38183;DHT22;23991;52.430;10.586;2022-10-16T04:52:01;14.80;80.40
38183;DHT22;23991;52.430;10.586;2022-10-16T04:54:26;14.80;80.40
38183;DHT22;23991;52.430;10.586;2022-10-16T04:56:52;14.80;80.40
38183;DHT22;23991;52.430;10.586;2022-10-16T04:59:19;14.80;80.20
38183;DHT22;23991;52.430;10.586;2022-10-16T05:01:45;14.80;80.00
38183;DHT22;23991;52.430;10.586;2022-10-16T05:04:10;14.80;79.90
38183;DHT22;23991;52.430;10.586;2022-10-16T05:06:37;14.70;80.20
38183;DHT22;23991;52.430;10.586;2022-10-16T05:09:04;14.80;80.30
38183;DHT22;23991;52.430;10.586;2022-10-16T05:11:31;14.70;80.30
38183;DHT22;23991;52.430;10.586;2022-10-16T05:13:56;14.70;80.40
38183;DHT22;23991;52.430;10.586;2022-10-16T05:16:22;14.70;80.60
38183;DHT22;23991;52.430;10.586;2022-10-16T05:18:48;14.70;80.70
38183;DHT22;23991;52.430;10.586;2022-10-16T05:21:14;14.70;80.80
38183;DHT22;23991;52.430;10.586;2022-10-16T05:23:39;14.70;80.90
38183;DHT22;23991;52.430;10.586;2022-10-16T05:26:05;14.60;81.00
38183;DHT22;23991;52.430;10.586;2022-10-16T05:28:31;14.60;81.10
38183;DHT22;23991;52.430;10.586;2022-10-16T05:30:57;14.60;81.20
38183;DHT22;23991;52.430;10.586;2022-10-16T05:33:24;14.60;81.30
38183;DHT22;23991;52.430;10.586;2022-10-16T05:35:51;14.60;81.40
38183;DHT22;23991;52.430;10.586;2022-10-16T05:38:17;14.60;81.60
38183;DHT22;23991;52.430;10.586;2022-10-16T05:40:49;14.60;81.60
38183;DHT22;23991;52.430;10.586;2022-10-16T05:43:15;14.60;81.70
38183;DHT22;23991;52.430;10.586;2022-10-16T05:45:41;14.60;81.80
38183;DHT22;23991;52.430;10.586;2022-10-16T05:48:07;14.50;81.70
38183;DHT22;23991;52.430;10.586;2022-10-16T05:50:32;14.50;81.70
38183;DHT22;23991;52.430;10.586;2022-10-16T05:52:58;14.60;81.70
38183;DHT22;23991;52.430;10.586;2022-10-16T05:55:24;14.60;81.70
38183;DHT22;23991;52.430;10.586;2022-10-16T05:57:53;14.60;81.70
38183;DHT22;23991;52.430;10.586;2022-10-16T06:00:19;14.60;81.80
38183;DHT22;23991;52.430;10.586;2022-10-16T06:02:45;14.60;81.80
38183;DHT22;23991;52.430;10.586;2022-10-16T06:05:11;14.50;81.70
38183;DHT22;23991;52.430;10.586;2022-10-16T06:07:37;14.50;81.60
38183;DHT22;23991;52.430;10.586;2022-10-16T06:10:04;14.60;81.70
38183;DHT22;23991;52.430;10.586;2022-10-16T06:12:32;14.60;81.50
38183;DHT22;23991;52.430;10.586;2022-10-16T06:14:58;14.60;81.40
38183;DHT22;23991;52.430;10.586;2022-10-16T06:17:24;14.70;81.30
38183;DHT22;23991;52.430;10.586;2022-10-16T06:19:49;14.80;81.10
38183;DHT22;23991;52.430;10.586;2022-10-16T06:22:15;14.80;81.00
38183;DHT22;23991;52.430;10.586;2022-10-16T06:24:41;14.80;80.70
38183;DHT22;23991;52.430;10.586;2022-10-16T06:27:07;14.90;80.50
38183;DHT22;23991;52.430;10.586;2022-10-16T06:29:32;15.00;80.30
38183;DHT22;23991;52.430;10.586;2022-10-16T06:31:58;15.10;79.90
38183;DHT22;23991;52.430;10.586;2022-10-16T06:34:25;15.10;79.60
38183;DHT22;23991;52.430;10.586;2022-10-16T06:36:51;15.20;79.60
38183;DHT22;23991;52.430;10.586;2022-10-16T06:39:16;15.30;79.40
38183;DHT22;23991;52.430;10.586;2022-10-16T06:41:43;15.40;78.90
38183;DHT22;23991;52.430;10.586;2022-10-16T06:44:09;15.40;78.50
38183;DHT22;23991;52.430;10.586;2022-10-16T06:46:35;15.50;78.30
38183;DHT22;23991;52.430;10.586;2022-10-16T06:49:02;15.60;78.40
38183;DHT22;23991;52.430;10.586;2022-10-16T06:51:28;15.70;78.40
38183;DHT22;23991;52.430;10.586;2022-10-16T06:53:55;15.80;78.30
38183;DHT22;23991;52.430;10.586;2022-10-16T06:56:26;15.90;78.30
38183;DHT22;23991;52.430;10.586;2022-10-16T06:58:55;16.00;78.00
38183;DHT22;23991;52.430;10.586;2022-10-16T07:01:24;16.10;77.70
38183;DHT22;23991;52.430;10.586;2022-10-16T07:03:50;16.30;77.40
38183;DHT22;23991;52.430;10.586;2022-10-16T07:06:18;16.30;77.40
38183;DHT22;23991;52.430;10.586;2022-10-16T07:08:46;16.40;77.10
38183;DHT22;23991;52.430;10.586;2022-10-16T07:11:17;16.60;77.10
38183;DHT22;23991;52.430;10.586;2022-10-16T07:13:44;16.70;76.90
38183;DHT22;23991;52.430;10.586;2022-10-16T07:16:15;16.80;76.50
38183;DHT22;23991;52.430;10.586;2022-10-16T07:18:41;16.90;76.40
38183;DHT22;23991;52.430;10.586;2022-10-16T07:21:29;17.00;76.00
38183;DHT22;23991;52.430;10.586;2022-10-16T07:23:58;17.10;75.50
38183;DHT22;23991;52.430;10.586;2022-10-16T07:26:25;17.30;75.30
38183;DHT22;23991;52.430;10.586;2022-10-16T07:28:51;17.70;74.70
38183;DHT22;23991;52.430;10.586;2022-10-16T07:31:20;18.00;73.90
38183;DHT22;23991;52.430;10.586;2022-10-16T07:33:49;18.40;72.40
38183;DHT22;23991;52.430;10.586;2022-10-16T07:36:16;18.70;71.40
38183;DHT22;23991;52.430;10.586;2022-10-16T07:38:43;19.00;70.50
38183;DHT22;23991;52.430;10.586;2022-10-16T07:41:14;19.30;69.50
38183;DHT22;23991;52.430;10.586;2022-10-16T07:43:40;19.70;68.30
38183;DHT22;23991;52.430;10.586;2022-10-16T07:46:10;20.10;67.00
38183;DHT22;23991;52.430;10.586;2022-10-16T07:48:36;20.40;65.70
38183;DHT22;23991;52.430;10.586;2022-10-16T07:51:03;20.80;64.50
38183;DHT22;23991;52.430;10.586;2022-10-16T07:53:30;21.00;64.00
38183;DHT22;23991;52.430;10.586;2022-10-16T07:56:00;21.30;63.10
38183;DHT22;23991;52.430;10.586;2022-10-16T07:58:26;21.30;62.60
38183;DHT22;23991;52.430;10.586;2022-10-16T08:00:51;21.50;61.70
38183;DHT22;23991;52.430;10.586;2022-10-16T08:03:17;21.70;60.80
38183;DHT22;23991;52.430;10.586;2022-10-16T08:05:43;21.90;60.00
38183;DHT22;23991;52.430;10.586;2022-10-16T08:08:16;22.00;59.70
38183;DHT22;23991;52.430;10.586;2022-10-16T08:10:42;22.20;58.60
38183;DHT22;23991;52.430;10.586;2022-10-16T08:13:08;22.50;57.90
38183;DHT22;23991;52.430;10.586;2022-10-16T08:15:34;22.70;57.10
38183;DHT22;23991;52.430;10.586;2022-10-16T08:18:04;23.00;56.00
38183;DHT22;23991;52.430;10.586;2022-10-16T08:20:31;23.30;54.70
38183;DHT22;23991;52.430;10.586;2022-10-16T08:22:57;23.20;54.20
38183;DHT22;23991;52.430;10.586;2022-10-16T08:25:23;23.20;54.30
38183;DHT22;23991;52.430;10.586;2022-10-16T08:27:49;23.20;54.60
38183;DHT22;23991;52.430;10.586;2022-10-16T08:30:15;23.00;54.90
38183;DHT22;23991;52.430;10.586;2022-10-16T08:32:41;23.10;55.30
38183;DHT22;23991;52.430;10.586;2022-10-16T08:35:08;23.50;53.90
38183;DHT22;23991;52.430;10.586;2022-10-16T08:37:35;23.70;53.00
38183;DHT22;23991;52.430;10.586;2022-10-16T08:40:00;24.10;51.90
38183;DHT22;23991;52.430;10.586;2022-10-16T08:50:12;25.20;49.00
38183;DHT22;23991;52.430;10.586;2022-10-16T08:52:41;25.50;47.90
38183;DHT22;23991;52.430;10.586;2022-10-16T08:55:39;24.90;48.10
38183;DHT22;23991;52.430;10.586;2022-10-16T08:58:14;24.80;48.60
38183;DHT22;23991;52.430;10.586;2022-10-16T09:00:42;24.80;49.20
38183;DHT22;23991;52.430;10.586;2022-10-16T09:03:46;24.70;49.30
38183;DHT22;23991;52.430;10.586;2022-10-16T09:09:06;25.40;47.70
38183;DHT22;23991;52.430;10.586;2022-10-16T09:17:27;26.00;46.00
38183;DHT22;23991;52.430;10.586;2022-10-16T09:22:33;26.10;45.60
38183;DHT22;23991;52.430;10.586;2022-10-16T09:25:00;26.20;45.30
38183;DHT22;23991;52.430;10.586;2022-10-16T09:27:30;26.40;44.50
38183;DHT22;23991;52.430;10.586;2022-10-16T09:29:56;26.10;45.10
38183;DHT22;23991;52.430;10.586;2022-10-16T09:32:22;25.80;45.60
38183;DHT22;23991;52.430;10.586;2022-10-16T09:34:50;25.50;46.70
38183;DHT22;23991;52.430;10.586;2022-10-16T09:37:19;25.50;46.60
38183;DHT22;23991;52.430;10.586;2022-10-16T09:39:50;25.60;46.50
38183;DHT22;23991;52.430;10.586;2022-10-16T09:42:25;25.60;46.60
38183;DHT22;23991;52.430;10.586;2022-10-16T09:44:53;26.00;45.80
38183;DHT22;23991;52.430;10.586;2022-10-16T09:47:30;26.20;44.80
38183;DHT22;23991;52.430;10.586;2022-10-16T09:50:04;26.70;43.70
38183;DHT22;23991;52.430;10.586;2022-10-16T09:52:32;27.70;42.10
38183;DHT22;23991;52.430;10.586;2022-10-16T09:55:09;27.70;41.50
38183;DHT22;23991;52.430;10.586;2022-10-16T09:57:47;28.00;40.50
38183;DHT22;23991;52.430;10.586;2022-10-16T10:00:17;28.60;39.10
38183;DHT22;23991;52.430;10.586;2022-10-16T10:02:43;29.20;37.70
38183;DHT22;23991;52.430;10.586;2022-10-16T10:05:23;29.20;37.70
38183;DHT22;23991;52.430;10.586;2022-10-16T10:07:58;29.70;36.90
38183;DHT22;23991;52.430;10.586;2022-10-16T10:10:29;29.70;37.10
38183;DHT22;23991;52.430;10.586;2022-10-16T10:12:56;29.60;37.30
38183;DHT22;23991;52.430;10.586;2022-10-16T10:15:22;30.00;36.50
38183;DHT22;23991;52.430;10.586;2022-10-16T10:17:54;30.20;36.10
38183;DHT22;23991;52.430;10.586;2022-10-16T10:20:33;30.30;36.00
38183;DHT22;23991;52.430;10.586;2022-10-16T10:23:00;30.80;34.30
38183;DHT22;23991;52.430;10.586;2022-10-16T10:25:48;31.10;33.40
38183;DHT22;23991;52.430;10.586;2022-10-16T10:28:42;31.00;33.30
38183;DHT22;23991;52.430;10.586;2022-10-16T10:31:27;30.90;33.30
38183;DHT22;23991;52.430;10.586;2022-10-16T10:34:11;31.00;33.40
38183;DHT22;23991;52.430;10.586;2022-10-16T10:36:40;30.60;33.30
38183;DHT22;23991;52.430;10.586;2022-10-16T10:39:25;30.70;34.10
38183;DHT22;23991;52.430;10.586;2022-10-16T10:42:17;30.90;32.70
38183;DHT22;23991;52.430;10.586;2022-10-16T10:47:40;31.40;31.70
38183;DHT22;23991;52.430;10.586;2022-10-16T10:50:12;32.00;31.10
38183;DHT22;23991;52.430;10.586;2022-10-16T10:52:57;31.60;30.80
38183;DHT22;23991;52.430;10.586;2022-10-16T10:58:16;31.90;30.00
38183;DHT22;23991;52.430;10.586;2022-10-16T11:03:35;31.10;30.60
38183;DHT22;23991;52.430;10.586;2022-10-16T11:06:17;30.80;31.70
38183;DHT22;23991;52.430;10.586;2022-10-16T11:08:51;31.00;30.80
38183;DHT22;23991;52.430;10.586;2022-10-16T11:11:41;31.20;31.10
38183;DHT22;23991;52.430;10.586;2022-10-16T11:14:18;31.00;30.40
38183;DHT22;23991;52.430;10.586;2022-10-16T11:22:00;30.30;31.70
38183;DHT22;23991;52.430;10.586;2022-10-16T11:24:36;30.20;32.00
38183;DHT22;23991;52.430;10.586;2022-10-16T11:27:08;30.20;32.20
38183;DHT22;23991;52.430;10.586;2022-10-16T11:29:35;29.70;32.70
38183;DHT22;23991;52.430;10.586;2022-10-16T11:32:19;30.20;32.40
38183;DHT22;23991;52.430;10.586;2022-10-16T11:34:53;30.30;32.10
38183;DHT22;23991;52.430;10.586;2022-10-16T11:37:25;30.20;32.20
38183;DHT22;23991;52.430;10.586;2022-10-16T11:39:54;30.10;32.20
38183;DHT22;23991;52.430;10.586;2022-10-16T11:42:30;30.20;31.60
38183;DHT22;23991;52.430;10.586;2022-10-16T11:47:43;31.10;30.90
38183;DHT22;23991;52.430;10.586;2022-10-16T11:55:41;31.70;29.70
38183;DHT22;23991;52.430;10.586;2022-10-16T12:06:29;33.20;28.50
38183;DHT22;23991;52.430;10.586;2022-10-16T12:08:59;33.30;28.30
38183;DHT22;23991;52.430;10.586;2022-10-16T12:16:57;33.60;27.90
38183;DHT22;23991;52.430;10.586;2022-10-16T12:19:26;33.50;27.30
38183;DHT22;23991;52.430;10.586;2022-10-16T12:21:55;32.90;28.00
38183;DHT22;23991;52.430;10.586;2022-10-16T12:24:30;32.70;28.30
38183;DHT22;23991;52.430;10.586;2022-10-16T12:26:56;32.90;28.00
38183;DHT22;23991;52.430;10.586;2022-10-16T12:29:34;32.90;28.00
38183;DHT22;23991;52.430;10.586;2022-10-16T12:32:04;33.00;28.40
38183;DHT22;23991;52.430;10.586;2022-10-16T12:34:37;33.10;27.90
38183;DHT22;23991;52.430;10.586;2022-10-16T12:37:23;33.40;28.00
38183;DHT22;23991;52.430;10.586;2022-10-16T12:39:52;33.20;28.30
38183;DHT22;23991;52.430;10.586;2022-10-16T12:42:31;33.20;28.00
38183;DHT22;23991;52.430;10.586;2022-10-16T12:44:58;33.40;27.90
38183;DHT22;23991;52.430;10.586;2022-10-16T12:49:58;33.40;27.30
38183;DHT22;23991;52.430;10.586;2022-10-16T12:52:44;33.60;27.30
38183;DHT22;23991;52.430;10.586;2022-10-16T12:55:17;33.80;27.50
38183;DHT22;23991;52.430;10.586;2022-10-16T13:00:53;33.20;27.20
38183;DHT22;23991;52.430;10.586;2022-10-16T13:06:38;33.60;27.20
38183;DHT22;23991;52.430;10.586;2022-10-16T13:12:56;33.30;27.10
38183;DHT22;23991;52.430;10.586;2022-10-16T13:18:39;33.20;26.40
38183;DHT22;23991;52.430;10.586;2022-10-16T13:29:31;33.30;26.00
38183;DHT22;23991;52.430;10.586;2022-10-16T13:31:58;33.20;26.70
38183;DHT22;23991;52.430;10.586;2022-10-16T13:34:44;33.40;26.80
38183;DHT22;23991;52.430;10.586;2022-10-16T13:37:18;33.30;26.30
38183;DHT22;23991;52.430;10.586;2022-10-16T13:39:45;33.40;26.10
38183;DHT22;23991;52.430;10.586;2022-10-16T13:44:46;34.00;26.10
38183;DHT22;23991;52.430;10.586;2022-10-16T13:47:19;33.50;26.70
38183;DHT22;23991;52.430;10.586;2022-10-16T13:49:45;33.00;27.20
38183;DHT22;23991;52.430;10.586;2022-10-16T13:52:19;32.90;27.40
38183;DHT22;23991;52.430;10.586;2022-10-16T13:54:45;33.10;27.10
38183;DHT22;23991;52.430;10.586;2022-10-16T13:57:16;33.10;27.20
38183;DHT22;23991;52.430;10.586;2022-10-16T13:59:42;32.90;27.30
38183;DHT22;23991;52.430;10.586;2022-10-16T14:02:31;33.00;27.40
38183;DHT22;23991;52.430;10.586;2022-10-16T14:05:01;33.10;27.20
38183;DHT22;23991;52.430;10.586;2022-10-16T14:07:29;32.30;27.60
38183;DHT22;23991;52.430;10.586;2022-10-16T14:10:00;32.50;27.20
38183;DHT22;23991;52.430;10.586;2022-10-16T14:12:27;32.40;27.10
38183;DHT22;23991;52.430;10.586;2022-10-16T14:14:54;32.30;27.60
38183;DHT22;23991;52.430;10.586;2022-10-16T14:17:31;32.50;27.40
38183;DHT22;23991;52.430;10.586;2022-10-16T14:19:59;32.00;28.10
38183;DHT22;23991;52.430;10.586;2022-10-16T14:22:36;31.60;29.10
38183;DHT22;23991;52.430;10.586;2022-10-16T14:30:25;31.80;28.20
38183;DHT22;23991;52.430;10.586;2022-10-16T14:33:20;30.90;29.60
38183;DHT22;23991;52.430;10.586;2022-10-16T14:35:46;30.40;30.20
38183;DHT22;23991;52.430;10.586;2022-10-16T14:38:19;30.20;30.70
38183;DHT22;23991;52.430;10.586;2022-10-16T14:40:49;30.00;30.90
38183;DHT22;23991;52.430;10.586;2022-10-16T14:43:21;29.70;31.80
38183;DHT22;23991;52.430;10.586;2022-10-16T14:45:53;29.10;32.40
38183;DHT22;23991;52.430;10.586;2022-10-16T14:48:20;29.00;32.80
38183;DHT22;23991;52.430;10.586;2022-10-16T14:50:46;28.90;32.90
38183;DHT22;23991;52.430;10.586;2022-10-16T14:53:13;28.30;33.90
38183;DHT22;23991;52.430;10.586;2022-10-16T14:55:40;28.20;34.80
38183;DHT22;23991;52.430;10.586;2022-10-16T14:58:13;28.10;34.40
38183;DHT22;23991;52.430;10.586;2022-10-16T15:00:40;27.90;34.70
38183;DHT22;23991;52.430;10.586;2022-10-16T15:03:06;27.90;35.30
38183;DHT22;23991;52.430;10.586;2022-10-16T15:05:31;28.10;34.80
38183;DHT22;23991;52.430;10.586;2022-10-16T15:07:58;28.20;34.70
38183;DHT22;23991;52.430;10.586;2022-10-16T15:10:27;28.30;34.50
38183;DHT22;23991;52.430;10.586;2022-10-16T15:12:53;28.20;34.50
38183;DHT22;23991;52.430;10.586;2022-10-16T15:15:27;28.00;34.70
38183;DHT22;23991;52.430;10.586;2022-10-16T15:17:55;28.00;34.90
38183;DHT22;23991;52.430;10.586;2022-10-16T15:20:23;28.00;34.60
38183;DHT22;23991;52.430;10.586;2022-10-16T15:22:49;28.00;34.60
38183;DHT22;23991;52.430;10.586;2022-10-16T15:28:03;27.50;35.60
38183;DHT22;23991;52.430;10.586;2022-10-16T15:30:29;27.20;36.00
38183;DHT22;23991;52.430;10.586;2022-10-16T15:32:55;27.40;35.90
38183;DHT22;23991;52.430;10.586;2022-10-16T15:35:21;27.00;36.70
38183;DHT22;23991;52.430;10.586;2022-10-16T15:37:48;26.90;36.80
38183;DHT22;23991;52.430;10.586;2022-10-16T15:40:16;26.50;37.60
38183;DHT22;23991;52.430;10.586;2022-10-16T15:42:41;26.50;37.70
38183;DHT22;23991;52.430;10.586;2022-10-16T15:45:09;26.10;38.60
38183;DHT22;23991;52.430;10.586;2022-10-16T15:47:34;25.80;39.10
38183;DHT22;23991;52.430;10.586;2022-10-16T15:50:00;25.50;39.70
38183;DHT22;23991;52.430;10.586;2022-10-16T15:52:29;25.40;39.90
38183;DHT22;23991;52.430;10.586;2022-10-16T15:54:57;25.30;39.90
38183;DHT22;23991;52.430;10.586;2022-10-16T15:57:24;25.20;40.40
38183;DHT22;23991;52.430;10.586;2022-10-16T15:59:50;25.20;40.60
38183;DHT22;23991;52.430;10.586;2022-10-16T16:02:16;25.10;40.90
38183;DHT22;23991;52.430;10.586;2022-10-16T16:04:42;25.00;41.40
38183;DHT22;23991;52.430;10.586;2022-10-16T16:07:07;25.00;41.80
38183;DHT22;23991;52.430;10.586;2022-10-16T16:09:33;24.70;42.30
38183;DHT22;23991;52.430;10.586;2022-10-16T16:12:01;24.60;42.60
38183;DHT22;23991;52.430;10.586;2022-10-16T16:14:27;24.50;43.10
38183;DHT22;23991;52.430;10.586;2022-10-16T16:16:54;24.50;43.40
38183;DHT22;23991;52.430;10.586;2022-10-16T16:19:21;24.60;43.40
38183;DHT22;23991;52.430;10.586;2022-10-16T16:21:47;24.60;43.30
38183;DHT22;23991;52.430;10.586;2022-10-16T16:24:13;24.30;43.60
38183;DHT22;23991;52.430;10.586;2022-10-16T16:26:39;24.30;43.50
38183;DHT22;23991;52.430;10.586;2022-10-16T16:29:13;24.20;44.10
38183;DHT22;23991;52.430;10.586;2022-10-16T16:31:40;24.00;44.20
38183;DHT22;23991;52.430;10.586;2022-10-16T16:34:06;23.70;44.90
38183;DHT22;23991;52.430;10.586;2022-10-16T16:36:33;23.70;45.30
38183;DHT22;23991;52.430;10.586;2022-10-16T16:38:59;23.30;46.10
38183;DHT22;23991;52.430;10.586;2022-10-16T16:41:27;23.00;46.60
38183;DHT22;23991;52.430;10.586;2022-10-16T16:43:53;22.60;47.60
38183;DHT22;23991;52.430;10.586;2022-10-16T16:46:20;22.40;48.00
38183;DHT22;23991;52.430;10.586;2022-10-16T16:48:46;22.20;48.60
38183;DHT22;23991;52.430;10.586;2022-10-16T16:51:14;22.10;49.00
38183;DHT22;23991;52.430;10.586;2022-10-16T16:53:45;22.00;49.10
38183;DHT22;23991;52.430;10.586;2022-10-16T16:56:12;21.90;49.40
38183;DHT22;23991;52.430;10.586;2022-10-16T16:58:37;21.80;49.50
38183;DHT22;23991;52.430;10.586;2022-10-16T17:01:04;21.50;49.80
38183;DHT22;23991;52.430;10.586;2022-10-16T17:03:32;21.40;50.30
38183;DHT22;23991;52.430;10.586;2022-10-16T17:06:02;21.30;50.70
38183;DHT22;23991;52.430;10.586;2022-10-16T17:08:28;21.00;51.20
38183;DHT22;23991;52.430;10.586;2022-10-16T17:10:56;20.80;51.80
38183;DHT22;23991;52.430;10.586;2022-10-16T17:13:24;20.80;52.00